Soquel, California
Current Conditions -  °F | °C
As of 8:16 AM on Saturday 25 Oct 2014 (Local Time) from KWVI Reporting Station
Light Rain Light Rain  
Wind Chill: 59°   Ceiling: 500
Heat Index: 59°   Visibility: 1.7mi
Dew Point: 59°   Wind: 0mph
Humidity: 100%   Direction: NA
Pressure: 30.04"   Gusts: NA
Location:  36.99°N, 121.95°W
Report Text: KWVI 251516Z AUTO 00000KT 1 3/4SM -RA BR BKN005 OVC012 15/15 A3004 RMK AO2 P0002 T01500150
Loading
Personal Weather Stations






























Interactive Weather Map New forecast layout! Learn more

10-Day Weather Forecast

Advertisements
Track Severe Weather on mobile